createdAt,value
2022-11-06T00:00:14.290Z,1001.07
2022-11-06T00:01:14.289Z,1001.09
2022-11-06T00:02:20.264Z,1001.13
2022-11-06T00:03:16.317Z,1001.00
2022-11-06T00:04:14.269Z,1000.99
2022-11-06T00:05:14.263Z,1000.97
2022-11-06T00:06:14.285Z,1000.99
2022-11-06T00:07:14.279Z,1000.94
2022-11-06T00:08:14.671Z,1000.97
2022-11-06T00:09:14.249Z,1000.90
2022-11-06T00:10:14.198Z,1000.91
2022-11-06T00:11:14.198Z,1000.93
2022-11-06T00:12:14.219Z,1000.88
2022-11-06T00:13:14.180Z,1000.87
2022-11-06T00:14:14.166Z,1000.85
2022-11-06T00:15:14.198Z,1000.90
2022-11-06T00:16:14.197Z,1000.82
2022-11-06T00:17:14.173Z,1000.90
2022-11-06T00:18:14.477Z,1000.85
2022-11-06T00:19:14.135Z,1000.76
2022-11-06T00:20:14.116Z,1000.84
2022-11-06T00:21:14.116Z,1000.77
2022-11-06T00:22:14.138Z,1000.78
2022-11-06T00:23:14.107Z,1000.70
2022-11-06T00:24:14.087Z,1000.72
2022-11-06T00:25:14.083Z,1000.71
2022-11-06T00:26:14.106Z,1000.68
2022-11-06T00:27:14.102Z,1000.73
2022-11-06T00:28:14.404Z,1000.75
2022-11-06T00:29:14.076Z,1000.73
2022-11-06T00:30:14.046Z,1000.79
2022-11-06T00:31:14.041Z,1000.82
2022-11-06T00:32:14.056Z,1000.75
2022-11-06T00:33:14.015Z,1000.79
2022-11-06T00:34:14.064Z,1000.78
2022-11-06T00:35:14.022Z,1000.76
2022-11-06T00:36:13.988Z,1000.69
2022-11-06T00:37:14.039Z,1000.77
2022-11-06T00:38:14.255Z,1000.72
2022-11-06T00:39:14.966Z,1000.70
2022-11-06T00:40:13.967Z,1000.70
2022-11-06T00:41:13.957Z,1000.67
2022-11-06T00:42:13.974Z,1000.66
2022-11-06T00:43:13.928Z,1000.75
2022-11-06T00:44:13.924Z,1000.76
2022-11-06T00:45:13.937Z,1000.72
2022-11-06T00:46:13.935Z,1000.71
2022-11-06T00:47:13.934Z,1000.76
2022-11-06T00:48:14.304Z,1000.76
2022-11-06T00:49:13.885Z,1000.84
2022-11-06T00:50:13.888Z,1000.80
2022-11-06T00:51:13.870Z,1000.84
2022-11-06T00:52:13.862Z,1000.80
2022-11-06T00:53:13.883Z,1000.81
2022-11-06T00:54:13.877Z,1000.78
2022-11-06T00:55:13.833Z,1000.80
2022-11-06T00:56:13.858Z,1000.80
2022-11-06T00:57:13.819Z,1000.73
2022-11-06T00:58:14.299Z,1000.70
2022-11-06T00:59:13.800Z,1000.72
2022-11-06T01:00:13.796Z,1000.74
2022-11-06T01:01:13.797Z,1000.75
2022-11-06T01:02:13.859Z,1000.75
2022-11-06T01:03:13.812Z,1000.84
2022-11-06T01:04:13.763Z,1000.76
2022-11-06T01:05:13.748Z,1000.86
2022-11-06T01:06:13.731Z,1000.78
2022-11-06T01:07:13.731Z,1000.77
2022-11-06T01:08:14.116Z,1000.81
2022-11-06T01:09:13.781Z,1000.89
2022-11-06T01:10:13.728Z,1000.83
2022-11-06T01:11:13.700Z,1000.86
2022-11-06T01:12:14.627Z,1000.83
2022-11-06T01:13:14.720Z,1000.84
2022-11-06T01:14:13.669Z,1000.87
2022-11-06T01:15:13.659Z,1000.89
2022-11-06T01:16:13.657Z,1000.87
2022-11-06T01:17:13.655Z,1000.90
2022-11-06T01:18:13.929Z,1000.88
2022-11-06T01:19:13.626Z,1000.82
2022-11-06T01:20:13.616Z,1000.88
2022-11-06T01:21:13.626Z,1000.89
2022-11-06T01:22:13.603Z,1000.88
2022-11-06T01:23:13.616Z,1000.86
2022-11-06T01:24:13.650Z,1000.78
2022-11-06T01:25:13.611Z,1000.78
2022-11-06T01:26:13.569Z,1000.74
2022-11-06T01:27:26.483Z,1000.76
2022-11-06T01:28:15.744Z,1000.77
2022-11-06T01:29:13.545Z,1000.78
2022-11-06T01:30:13.539Z,1000.67
2022-11-06T01:31:13.545Z,1000.77
2022-11-06T01:32:13.523Z,1000.83
2022-11-06T01:33:13.527Z,1000.72
2022-11-06T01:34:14.499Z,1000.71
2022-11-06T01:35:13.519Z,1000.72
2022-11-06T01:36:13.479Z,1000.73
2022-11-06T01:37:14.977Z,1000.70
2022-11-06T01:38:14.691Z,1000.76
2022-11-06T01:39:13.456Z,1000.66
2022-11-06T01:40:13.482Z,1000.67
2022-11-06T01:41:13.445Z,1000.52
2022-11-06T01:42:13.479Z,1000.66
2022-11-06T01:43:13.455Z,1000.53
2022-11-06T01:44:13.416Z,1000.59
2022-11-06T01:45:13.412Z,1000.57
2022-11-06T01:46:13.400Z,1000.50
2022-11-06T01:47:13.395Z,1000.50
2022-11-06T01:48:13.639Z,1000.50
2022-11-06T01:49:13.398Z,1000.49
2022-11-06T01:50:13.413Z,1000.45
2022-11-06T01:51:13.364Z,1000.45
2022-11-06T01:52:13.348Z,1000.45
2022-11-06T01:53:13.378Z,1000.39
2022-11-06T01:54:13.344Z,1000.37
2022-11-06T01:55:13.321Z,1000.36
2022-11-06T01:56:13.315Z,1000.35
2022-11-06T01:57:13.307Z,1000.30
2022-11-06T01:58:13.553Z,1000.31
2022-11-06T01:59:13.361Z,1000.25
2022-11-06T02:00:13.297Z,1000.32
2022-11-06T02:01:13.288Z,1000.27
2022-11-06T02:02:13.314Z,1000.31
2022-11-06T02:03:13.332Z,1000.27
2022-11-06T02:04:13.260Z,1000.26
2022-11-06T02:05:13.239Z,1000.32
2022-11-06T02:06:13.242Z,1000.27
2022-11-06T02:07:13.216Z,1000.33
2022-11-06T02:08:13.486Z,1000.31
2022-11-06T02:09:13.211Z,1000.30
2022-11-06T02:10:13.201Z,1000.26
2022-11-06T02:11:13.218Z,1000.35
2022-11-06T02:12:13.196Z,1000.39
2022-11-06T02:13:13.201Z,1000.39
2022-11-06T02:14:13.188Z,1000.43
2022-11-06T02:15:13.154Z,1000.38
2022-11-06T02:16:13.161Z,1000.38
2022-11-06T02:17:13.140Z,1000.39
2022-11-06T02:18:13.393Z,1000.44
2022-11-06T02:19:13.190Z,1000.44
2022-11-06T02:20:13.130Z,1000.44
2022-11-06T02:21:13.112Z,1000.41
2022-11-06T02:22:13.095Z,1000.46
2022-11-06T02:23:13.157Z,1000.45
2022-11-06T02:24:13.100Z,1000.49
2022-11-06T02:25:13.102Z,1000.48
2022-11-06T02:26:13.090Z,1000.49
2022-11-06T02:27:13.052Z,1000.52
2022-11-06T02:28:13.401Z,1000.47
2022-11-06T02:29:13.056Z,1000.53
2022-11-06T02:30:13.033Z,1000.48
2022-11-06T02:31:13.099Z,1000.46
2022-11-06T02:32:13.052Z,1000.46
2022-11-06T02:33:13.025Z,1000.49
2022-11-06T02:34:14.077Z,1000.47
2022-11-06T02:35:13.017Z,1000.40
2022-11-06T02:36:12.988Z,1000.45
2022-11-06T02:37:13.034Z,1000.35
2022-11-06T02:38:13.199Z,1000.42
2022-11-06T02:39:12.970Z,1000.32
2022-11-06T02:40:12.974Z,1000.35
2022-11-06T02:41:12.938Z,1000.32
2022-11-06T02:42:13.029Z,1000.35
2022-11-06T02:43:12.934Z,1000.38
2022-11-06T02:44:12.908Z,1000.34
2022-11-06T02:45:12.907Z,1000.34
2022-11-06T02:46:12.894Z,1000.42
2022-11-06T02:47:12.903Z,1000.38
2022-11-06T02:48:13.238Z,1000.31
2022-11-06T02:49:12.891Z,1000.34
2022-11-06T02:50:12.872Z,1000.32
2022-11-06T02:51:12.858Z,1000.28
2022-11-06T02:52:12.876Z,1000.30
2022-11-06T02:53:12.893Z,1000.21
2022-11-06T02:54:12.832Z,1000.18
2022-11-06T02:55:12.853Z,1000.18
2022-11-06T02:56:12.812Z,1000.20
2022-11-06T02:57:12.806Z,1000.25
2022-11-06T02:58:13.090Z,1000.14
2022-11-06T02:59:12.802Z,1000.16
2022-11-06T03:00:12.786Z,1000.20
2022-11-06T03:01:12.771Z,1000.18
2022-11-06T03:02:12.916Z,1000.20
2022-11-06T03:03:12.769Z,1000.11
2022-11-06T03:04:12.760Z,1000.15
2022-11-06T03:05:12.742Z,1000.11
2022-11-06T03:06:12.732Z,1000.13
2022-11-06T03:07:12.772Z,1000.08
2022-11-06T03:08:12.953Z,1000.15
2022-11-06T03:09:12.764Z,1000.19
2022-11-06T03:10:12.702Z,1000.18
2022-11-06T03:11:12.710Z,1000.11
2022-11-06T03:12:12.828Z,1000.10
2022-11-06T03:13:12.683Z,1000.10
2022-11-06T03:14:12.659Z,1000.12
2022-11-06T03:15:12.671Z,1000.08
2022-11-06T03:16:12.672Z,1000.07
2022-11-06T03:17:12.669Z,1000.18
2022-11-06T03:18:12.928Z,1000.13
2022-11-06T03:19:12.624Z,1000.09
2022-11-06T03:20:12.625Z,1000.09
2022-11-06T03:21:12.604Z,1000.05
2022-11-06T03:22:12.627Z,1000.16
2022-11-06T03:23:12.582Z,1000.13
2022-11-06T03:24:12.582Z,1000.08
2022-11-06T03:25:12.610Z,1000.01
2022-11-06T03:26:12.575Z,1000.01
2022-11-06T03:27:12.568Z,1000.02
2022-11-06T03:28:12.921Z,1000.03
2022-11-06T03:29:12.547Z,1000.02
2022-11-06T03:30:16.332Z,1000.00
2022-11-06T03:31:13.539Z,1000.04
2022-11-06T03:32:12.519Z,999.97
2022-11-06T03:33:12.539Z,999.98
2022-11-06T03:34:12.513Z,1000.04
2022-11-06T03:35:12.509Z,1000.01
2022-11-06T03:36:12.478Z,999.99
2022-11-06T03:37:12.503Z,1000.07
2022-11-06T03:38:12.813Z,1000.03
2022-11-06T03:39:12.458Z,1000.02
2022-11-06T03:40:12.451Z,1000.00
2022-11-06T03:41:12.448Z,1000.00
2022-11-06T03:42:12.467Z,1000.00
2022-11-06T03:43:12.429Z,999.97
2022-11-06T03:44:12.423Z,999.97
2022-11-06T03:45:12.448Z,999.99
2022-11-06T03:46:12.395Z,999.99
2022-11-06T03:47:12.499Z,1000.04
2022-11-06T03:48:12.709Z,1000.01
2022-11-06T03:49:12.381Z,999.98
2022-11-06T03:50:12.390Z,999.97
2022-11-06T03:51:12.365Z,999.97
2022-11-06T03:52:12.393Z,1000.02
2022-11-06T03:53:12.344Z,999.98
2022-11-06T03:54:12.356Z,1000.09
2022-11-06T03:55:12.394Z,1000.00
2022-11-06T03:56:12.310Z,1000.03
2022-11-06T03:57:12.385Z,1000.01
2022-11-06T03:58:12.580Z,999.93
2022-11-06T03:59:13.360Z,999.92
2022-11-06T04:00:12.282Z,999.93
2022-11-06T04:01:12.278Z,999.95
2022-11-06T04:02:12.456Z,999.90
2022-11-06T04:03:12.269Z,1000.00
2022-11-06T04:04:12.247Z,999.97
2022-11-06T04:05:12.262Z,1000.00
2022-11-06T04:06:12.230Z,1000.01
2022-11-06T04:07:12.280Z,1000.01
2022-11-06T04:08:12.554Z,1000.05
2022-11-06T04:09:12.212Z,999.99
2022-11-06T04:10:12.209Z,999.97
2022-11-06T04:11:12.189Z,999.96
2022-11-06T04:12:12.217Z,1000.08
2022-11-06T04:13:12.175Z,999.99
2022-11-06T04:14:12.208Z,1000.00
2022-11-06T04:15:12.180Z,1000.00
2022-11-06T04:16:12.157Z,999.96
2022-11-06T04:17:12.180Z,999.97
2022-11-06T04:18:12.402Z,1000.01
2022-11-06T04:19:12.123Z,1000.01
2022-11-06T04:20:12.114Z,1000.02
2022-11-06T04:21:12.104Z,999.98
2022-11-06T04:22:12.121Z,999.97
2022-11-06T04:23:12.094Z,999.93
2022-11-06T04:24:12.081Z,999.95
2022-11-06T04:25:12.079Z,999.92
2022-11-06T04:26:12.062Z,1000.02
2022-11-06T04:27:12.101Z,999.89
2022-11-06T04:28:12.428Z,999.90
2022-11-06T04:29:12.033Z,999.85
2022-11-06T04:30:12.027Z,999.88
2022-11-06T04:31:12.051Z,999.91
2022-11-06T04:32:12.004Z,999.80
2022-11-06T04:33:12.017Z,999.87
2022-11-06T04:34:11.994Z,999.83
2022-11-06T04:35:11.978Z,999.76
2022-11-06T04:36:12.029Z,999.80
2022-11-06T04:37:11.967Z,999.78
2022-11-06T04:38:12.290Z,999.77
2022-11-06T04:39:11.961Z,999.77
2022-11-06T04:40:11.938Z,999.78
2022-11-06T04:41:12.024Z,999.85
2022-11-06T04:42:11.923Z,999.76
2022-11-06T04:43:11.986Z,999.75
2022-11-06T04:44:11.908Z,999.80
2022-11-06T04:45:11.902Z,999.73
2022-11-06T04:46:11.927Z,999.72
2022-11-06T04:47:11.883Z,999.75
2022-11-06T04:48:12.311Z,999.69
2022-11-06T04:49:11.865Z,999.70
2022-11-06T04:50:11.870Z,999.63
2022-11-06T04:51:11.849Z,999.64
2022-11-06T04:52:11.880Z,999.64
2022-11-06T04:53:11.833Z,999.64
2022-11-06T04:54:11.826Z,999.62
2022-11-06T04:55:11.834Z,999.70
2022-11-06T04:56:11.798Z,999.62
2022-11-06T04:57:11.826Z,999.61
2022-11-06T04:58:12.071Z,999.60
2022-11-06T04:59:12.790Z,999.60
2022-11-06T05:00:11.787Z,999.59
2022-11-06T05:01:11.812Z,999.58
2022-11-06T05:02:11.840Z,999.54
2022-11-06T05:03:11.759Z,999.48
2022-11-06T05:04:11.760Z,999.52
2022-11-06T05:05:11.748Z,999.49
2022-11-06T05:06:11.727Z,999.54
2022-11-06T05:07:11.741Z,999.51
2022-11-06T05:08:12.149Z,999.50
2022-11-06T05:09:11.702Z,999.47
2022-11-06T05:10:11.712Z,999.48
2022-11-06T05:11:11.701Z,999.49
2022-11-06T05:12:11.712Z,999.47
2022-11-06T05:13:11.665Z,999.44
2022-11-06T05:14:11.654Z,999.37
2022-11-06T05:15:11.651Z,999.42
2022-11-06T05:16:11.654Z,999.42
2022-11-06T05:17:11.755Z,999.38
2022-11-06T05:18:12.099Z,999.41
2022-11-06T05:19:11.615Z,999.43
2022-11-06T05:20:11.602Z,999.45
2022-11-06T05:21:11.616Z,999.52
2022-11-06T05:22:11.838Z,999.42
2022-11-06T05:23:11.596Z,999.48
2022-11-06T05:24:11.575Z,999.51
2022-11-06T05:25:11.587Z,999.53
2022-11-06T05:26:11.557Z,999.61
2022-11-06T05:27:11.584Z,999.57
2022-11-06T05:28:11.908Z,999.67
2022-11-06T05:29:11.547Z,999.63
2022-11-06T05:30:11.519Z,999.68
2022-11-06T05:31:11.516Z,999.64
2022-11-06T05:32:11.536Z,999.69
2022-11-06T05:33:11.523Z,999.63
2022-11-06T05:34:11.536Z,999.68
2022-11-06T05:35:11.482Z,999.65
2022-11-06T05:36:11.464Z,999.65
2022-11-06T05:37:11.507Z,999.69
2022-11-06T05:38:11.862Z,999.67
2022-11-06T05:39:11.446Z,999.60
2022-11-06T05:40:11.451Z,999.57
2022-11-06T05:41:11.440Z,999.56
2022-11-06T05:42:11.464Z,999.61
2022-11-06T05:43:11.404Z,999.59
2022-11-06T05:44:11.427Z,999.65
2022-11-06T05:45:11.386Z,999.70
2022-11-06T05:46:29.749Z,999.72
2022-11-06T05:47:13.400Z,999.71
2022-11-06T05:48:11.715Z,999.77
2022-11-06T05:49:11.360Z,999.76
2022-11-06T05:50:11.350Z,999.77
2022-11-06T05:51:11.359Z,999.83
2022-11-06T05:52:11.364Z,999.83
2022-11-06T05:53:11.328Z,999.79
2022-11-06T05:54:11.312Z,999.74
2022-11-06T05:55:14.658Z,999.80
2022-11-06T05:56:12.300Z,999.81
2022-11-06T05:57:11.321Z,999.83
2022-11-06T05:58:11.555Z,999.77
2022-11-06T05:59:11.276Z,999.80
2022-11-06T06:00:11.276Z,999.77
2022-11-06T06:01:11.270Z,999.80
2022-11-06T06:02:11.372Z,999.78
2022-11-06T06:03:11.303Z,999.71
2022-11-06T06:04:12.227Z,999.74
2022-11-06T06:05:11.222Z,999.56
2022-11-06T06:06:11.216Z,999.63
2022-11-06T06:07:11.241Z,999.56
2022-11-06T06:08:11.506Z,999.54
2022-11-06T06:09:11.192Z,999.53
2022-11-06T06:10:11.184Z,999.55
2022-11-06T06:11:11.176Z,999.57
2022-11-06T06:12:11.163Z,999.54
2022-11-06T06:13:11.324Z,999.60
2022-11-06T06:14:11.167Z,999.51
2022-11-06T06:15:11.136Z,999.58
2022-11-06T06:16:11.153Z,999.54
2022-11-06T06:17:11.118Z,999.55
2022-11-06T06:18:11.650Z,999.60
2022-11-06T06:19:11.103Z,999.58
2022-11-06T06:20:11.098Z,999.61
2022-11-06T06:21:11.103Z,999.63
2022-11-06T06:22:11.090Z,999.66
2022-11-06T06:23:11.112Z,999.53
2022-11-06T06:24:11.116Z,999.59
2022-11-06T06:25:21.350Z,999.49
2022-11-06T06:26:13.040Z,999.54
2022-11-06T06:27:11.031Z,999.55
2022-11-06T06:28:11.340Z,999.52
2022-11-06T06:29:11.004Z,999.53
2022-11-06T06:30:12.005Z,999.57
2022-11-06T06:31:10.997Z,999.47
2022-11-06T06:32:10.999Z,999.49
2022-11-06T06:33:11.004Z,999.47
2022-11-06T06:34:10.981Z,999.47
2022-11-06T06:35:10.973Z,999.45
2022-11-06T06:36:10.957Z,999.42
2022-11-06T06:37:10.949Z,999.47
2022-11-06T06:38:11.378Z,999.38
2022-11-06T06:39:10.935Z,999.44
2022-11-06T06:40:10.925Z,999.35
2022-11-06T06:41:10.917Z,999.43
2022-11-06T06:42:10.902Z,999.48
2022-11-06T06:43:10.928Z,999.41
2022-11-06T06:44:10.895Z,999.37
2022-11-06T06:45:10.882Z,999.41
2022-11-06T06:46:10.875Z,999.45
2022-11-06T06:47:10.865Z,999.39
2022-11-06T06:48:11.324Z,999.39
2022-11-06T06:49:10.855Z,999.43
2022-11-06T06:50:10.835Z,999.35
2022-11-06T06:51:10.838Z,999.36
2022-11-06T06:52:10.828Z,999.30
2022-11-06T06:53:10.847Z,999.35
2022-11-06T06:54:10.830Z,999.28
2022-11-06T06:55:10.801Z,999.25
2022-11-06T06:56:10.801Z,999.27
2022-11-06T06:57:10.777Z,999.23
2022-11-06T06:58:16.568Z,999.20
2022-11-06T06:59:12.772Z,999.21
2022-11-06T07:00:10.760Z,999.20
2022-11-06T07:01:10.840Z,999.21
2022-11-06T07:02:10.811Z,999.26
2022-11-06T07:03:10.761Z,999.22
2022-11-06T07:04:10.720Z,999.13
2022-11-06T07:05:10.720Z,999.24
2022-11-06T07:06:10.726Z,999.16
2022-11-06T07:07:10.695Z,999.09
2022-11-06T07:08:11.057Z,999.15
2022-11-06T07:09:10.688Z,999.13
2022-11-06T07:10:10.684Z,999.18
2022-11-06T07:11:10.671Z,999.13
2022-11-06T07:12:10.662Z,999.17
2022-11-06T07:13:10.973Z,999.17
2022-11-06T07:14:10.641Z,999.17
2022-11-06T07:15:10.642Z,999.14
2022-11-06T07:16:10.618Z,999.09
2022-11-06T07:17:10.633Z,999.09
2022-11-06T07:18:10.903Z,999.14
2022-11-06T07:19:10.618Z,999.08
2022-11-06T07:20:10.600Z,999.06
2022-11-06T07:21:10.587Z,999.06
2022-11-06T07:22:10.581Z,999.02
2022-11-06T07:23:10.594Z,999.01
2022-11-06T07:24:10.562Z,998.98
2022-11-06T07:25:10.561Z,999.01
2022-11-06T07:26:10.544Z,999.10
2022-11-06T07:27:10.537Z,999.05
2022-11-06T07:28:10.572Z,998.99
2022-11-06T07:29:10.596Z,999.00
2022-11-06T07:30:10.512Z,998.96
2022-11-06T07:31:10.504Z,998.99
2022-11-06T07:32:10.498Z,999.05
2022-11-06T07:33:10.511Z,999.04
2022-11-06T07:34:10.483Z,999.05
2022-11-06T07:35:10.470Z,999.05
2022-11-06T07:36:10.465Z,999.09
2022-11-06T07:37:10.449Z,999.05
2022-11-06T07:38:10.697Z,999.06
2022-11-06T07:39:10.432Z,999.08
2022-11-06T07:40:10.432Z,999.10
2022-11-06T07:41:10.424Z,999.04
2022-11-06T07:42:10.403Z,999.07
2022-11-06T07:43:10.430Z,999.06
2022-11-06T07:44:42.922Z,999.14
2022-11-06T07:45:10.375Z,999.06
2022-11-06T07:46:10.418Z,999.10
2022-11-06T07:47:10.362Z,999.16
2022-11-06T07:48:10.394Z,999.08
2022-11-06T07:49:10.353Z,999.13
2022-11-06T07:50:10.341Z,999.11
2022-11-06T07:51:10.334Z,999.15
2022-11-06T07:52:10.327Z,999.17
2022-11-06T07:53:10.511Z,999.13
2022-11-06T07:54:10.308Z,999.20
2022-11-06T07:55:10.301Z,999.15
2022-11-06T07:56:10.322Z,999.18
2022-11-06T07:57:10.289Z,999.11
2022-11-06T07:58:10.393Z,999.15
2022-11-06T07:59:10.260Z,999.11
2022-11-06T08:00:10.261Z,999.16
2022-11-06T08:01:12.963Z,999.11
2022-11-06T08:02:12.408Z,999.14
2022-11-06T08:03:10.241Z,999.12
2022-11-06T08:04:10.247Z,999.15
2022-11-06T08:05:10.226Z,999.01
2022-11-06T08:06:10.210Z,999.05
2022-11-06T08:07:10.206Z,999.07
2022-11-06T08:08:10.318Z,999.11
2022-11-06T08:09:10.206Z,999.04
2022-11-06T08:10:10.168Z,999.05
2022-11-06T08:11:10.165Z,999.02
2022-11-06T08:12:10.158Z,998.99
2022-11-06T08:13:10.152Z,998.97
2022-11-06T08:14:10.157Z,998.99
2022-11-06T08:15:11.130Z,998.92
2022-11-06T08:16:10.123Z,998.92
2022-11-06T08:17:10.116Z,998.92
2022-11-06T08:18:11.499Z,998.96
2022-11-06T08:19:10.131Z,998.85
2022-11-06T08:20:10.089Z,998.86
2022-11-06T08:21:10.084Z,998.84
2022-11-06T08:22:10.066Z,998.82
2022-11-06T08:23:10.068Z,998.86
2022-11-06T08:24:10.089Z,998.87
2022-11-06T08:25:10.052Z,998.88
2022-11-06T08:26:10.044Z,998.83
2022-11-06T08:27:10.104Z,998.90
2022-11-06T08:28:10.179Z,998.83
2022-11-06T08:29:10.052Z,998.80
2022-11-06T08:30:10.007Z,998.83
2022-11-06T08:31:10.010Z,998.80
2022-11-06T08:32:10.003Z,998.84
2022-11-06T08:33:09.993Z,998.78
2022-11-06T08:34:10.027Z,998.73
2022-11-06T08:35:09.969Z,998.75
2022-11-06T08:36:09.981Z,998.75
2022-11-06T08:37:09.959Z,998.70
2022-11-06T08:38:09.948Z,998.70
2022-11-06T08:39:09.968Z,998.64
2022-11-06T08:40:09.930Z,998.56
2022-11-06T08:41:09.918Z,998.55
2022-11-06T08:42:09.927Z,998.56
2022-11-06T08:43:09.912Z,998.52
2022-11-06T08:44:09.928Z,998.62
2022-11-06T08:45:09.889Z,998.48
2022-11-06T08:46:09.954Z,998.54
2022-11-06T08:47:09.875Z,998.45
2022-11-06T08:48:09.873Z,998.58
2022-11-06T08:49:09.899Z,998.50
2022-11-06T08:50:09.855Z,998.54
2022-11-06T08:51:09.843Z,998.48
2022-11-06T08:52:09.838Z,998.47
2022-11-06T08:53:09.842Z,998.42
2022-11-06T08:54:09.877Z,998.39
2022-11-06T08:55:09.811Z,998.39
2022-11-06T08:56:09.804Z,998.42
2022-11-06T08:57:09.796Z,998.34
2022-11-06T08:58:09.805Z,998.36
2022-11-06T08:59:09.815Z,998.37
2022-11-06T09:00:09.769Z,998.28
2022-11-06T09:01:09.840Z,998.37
2022-11-06T09:02:09.862Z,998.34
2022-11-06T09:03:09.747Z,998.34
2022-11-06T09:04:09.774Z,998.36
2022-11-06T09:05:09.730Z,998.30
2022-11-06T09:06:09.720Z,998.33
2022-11-06T09:07:09.713Z,998.28
2022-11-06T09:08:09.711Z,998.26
2022-11-06T09:09:09.735Z,998.19
2022-11-06T09:10:09.692Z,998.18
2022-11-06T09:11:09.681Z,998.20
2022-11-06T09:12:09.687Z,998.13
2022-11-06T09:13:09.677Z,998.13
2022-11-06T09:14:09.656Z,998.15
2022-11-06T09:15:09.680Z,998.07
2022-11-06T09:16:15.343Z,998.05
2022-11-06T09:17:11.635Z,997.97
2022-11-06T09:18:09.623Z,997.94
2022-11-06T09:19:09.628Z,997.95
2022-11-06T09:20:09.642Z,997.98
2022-11-06T09:21:09.609Z,997.92
2022-11-06T09:22:09.594Z,997.95
2022-11-06T09:23:09.588Z,997.99
2022-11-06T09:24:09.572Z,997.92
2022-11-06T09:25:09.601Z,997.93
2022-11-06T09:26:09.567Z,997.90
2022-11-06T09:27:09.546Z,997.91
2022-11-06T09:28:10.552Z,997.89
2022-11-06T09:29:09.549Z,997.91
2022-11-06T09:30:09.574Z,997.95
2022-11-06T09:31:09.528Z,997.88
2022-11-06T09:32:09.520Z,997.98
2022-11-06T09:33:13.557Z,997.90
2022-11-06T09:34:10.497Z,997.89
2022-11-06T09:35:09.540Z,997.84
2022-11-06T09:36:09.492Z,997.87
2022-11-06T09:37:09.483Z,997.86
2022-11-06T09:38:09.471Z,997.83
2022-11-06T09:39:09.458Z,997.83
2022-11-06T09:40:09.451Z,997.76
2022-11-06T09:41:09.475Z,997.79
2022-11-06T09:42:09.438Z,997.83
2022-11-06T09:43:09.431Z,997.76
2022-11-06T09:44:09.420Z,997.75
2022-11-06T09:45:09.415Z,997.67
2022-11-06T09:46:09.437Z,997.62
2022-11-06T09:47:09.390Z,997.66
2022-11-06T09:48:09.383Z,997.61
2022-11-06T09:49:09.389Z,997.60
2022-11-06T09:50:09.379Z,997.64
2022-11-06T09:51:09.397Z,997.66
2022-11-06T09:52:09.364Z,997.67
2022-11-06T09:53:09.347Z,997.66
2022-11-06T09:54:09.359Z,997.63
2022-11-06T09:55:09.337Z,997.61
2022-11-06T09:56:09.347Z,997.52
2022-11-06T09:57:10.326Z,997.48
2022-11-06T09:58:09.310Z,997.54
2022-11-06T09:59:09.311Z,997.50
2022-11-06T10:00:09.294Z,997.38
2022-11-06T10:01:09.381Z,997.36
2022-11-06T10:02:09.404Z,997.33
2022-11-06T10:03:09.265Z,997.26
2022-11-06T10:04:09.263Z,997.26
2022-11-06T10:05:09.256Z,997.30
2022-11-06T10:06:09.299Z,997.22
2022-11-06T10:07:09.250Z,997.17
2022-11-06T10:08:09.228Z,997.16
2022-11-06T10:09:09.230Z,997.13
2022-11-06T10:10:09.219Z,997.09
2022-11-06T10:11:09.239Z,997.16
2022-11-06T10:12:09.203Z,997.08
2022-11-06T10:13:10.754Z,997.07
2022-11-06T10:14:09.178Z,997.01
2022-11-06T10:15:09.176Z,997.04
2022-11-06T10:16:09.211Z,997.00
2022-11-06T10:17:10.159Z,997.05
2022-11-06T10:18:09.158Z,996.92
2022-11-06T10:19:09.147Z,996.99
2022-11-06T10:20:09.133Z,996.97
2022-11-06T10:21:09.156Z,996.99
2022-11-06T10:22:09.111Z,997.00
2022-11-06T10:23:10.110Z,996.95
2022-11-06T10:24:09.102Z,996.95
2022-11-06T10:25:09.101Z,996.89
2022-11-06T10:26:09.125Z,996.84
2022-11-06T10:27:09.086Z,996.86
2022-11-06T10:28:09.072Z,996.80
2022-11-06T10:29:09.073Z,996.85
2022-11-06T10:30:09.060Z,996.88
2022-11-06T10:31:09.084Z,996.78
2022-11-06T10:32:09.052Z,996.85
2022-11-06T10:33:09.037Z,996.79
2022-11-06T10:34:09.063Z,996.78
2022-11-06T10:35:09.025Z,996.76
2022-11-06T10:36:09.158Z,996.77
2022-11-06T10:37:09.011Z,996.72
2022-11-06T10:38:08.996Z,996.79
2022-11-06T10:39:08.989Z,996.78
2022-11-06T10:40:08.978Z,996.72
2022-11-06T10:41:08.976Z,996.73
2022-11-06T10:42:08.994Z,996.75
2022-11-06T10:43:08.954Z,996.63
2022-11-06T10:44:08.952Z,996.58
2022-11-06T10:45:08.956Z,996.48
2022-11-06T10:46:08.960Z,996.48
2022-11-06T10:47:08.925Z,996.49
2022-11-06T10:48:08.918Z,996.39
2022-11-06T10:49:08.910Z,996.41
2022-11-06T10:50:08.903Z,996.35
2022-11-06T10:51:08.921Z,996.24
2022-11-06T10:52:08.882Z,996.27
2022-11-06T10:53:08.880Z,996.17
2022-11-06T10:54:08.868Z,996.12
2022-11-06T10:55:09.913Z,996.21
2022-11-06T10:56:11.134Z,996.12
2022-11-06T10:57:09.846Z,996.20
2022-11-06T10:58:08.845Z,996.16
2022-11-06T10:59:08.836Z,996.17
2022-11-06T11:00:08.826Z,996.13
2022-11-06T11:01:08.888Z,996.09
2022-11-06T11:02:08.924Z,996.10
2022-11-06T11:03:08.797Z,996.17
2022-11-06T11:04:08.792Z,996.05
2022-11-06T11:05:08.826Z,996.15
2022-11-06T11:06:08.776Z,996.01
2022-11-06T11:07:08.798Z,996.00
2022-11-06T11:08:08.762Z,996.08
2022-11-06T11:09:08.750Z,996.06
2022-11-06T11:10:08.771Z,996.01
2022-11-06T11:11:08.742Z,995.96
2022-11-06T11:12:08.759Z,995.95
2022-11-06T11:13:09.155Z,995.99
2022-11-06T11:14:09.707Z,996.00
2022-11-06T11:15:08.703Z,995.99
2022-11-06T11:16:08.701Z,995.94
2022-11-06T11:17:08.713Z,996.01
2022-11-06T11:18:08.682Z,995.97
2022-11-06T11:19:08.698Z,996.01
2022-11-06T11:20:08.672Z,995.86
2022-11-06T11:21:08.661Z,995.89
2022-11-06T11:22:08.684Z,995.86
2022-11-06T11:23:08.747Z,995.83
2022-11-06T11:24:08.630Z,995.85
2022-11-06T11:25:08.624Z,995.84
2022-11-06T11:26:08.609Z,995.81
2022-11-06T11:27:08.752Z,995.72
2022-11-06T11:28:08.596Z,995.77
2022-11-06T11:29:08.593Z,995.69
2022-11-06T11:30:08.584Z,995.70
2022-11-06T11:31:08.588Z,995.66
2022-11-06T11:32:08.604Z,995.67
2022-11-06T11:33:08.559Z,995.67
2022-11-06T11:34:08.556Z,995.67
2022-11-06T11:35:08.542Z,995.52
2022-11-06T11:36:08.539Z,995.68
2022-11-06T11:37:08.555Z,995.63
2022-11-06T11:38:08.517Z,995.55
2022-11-06T11:39:08.518Z,995.56
2022-11-06T11:40:13.266Z,995.60
2022-11-06T11:41:10.493Z,995.63
2022-11-06T11:42:08.514Z,995.58
2022-11-06T11:43:08.487Z,995.57
2022-11-06T11:44:08.477Z,995.54
2022-11-06T11:45:08.460Z,995.50
2022-11-06T11:46:08.467Z,995.50
2022-11-06T11:47:09.314Z,995.43
2022-11-06T11:48:09.442Z,995.38
2022-11-06T11:49:08.439Z,995.49
2022-11-06T11:50:08.426Z,995.37
2022-11-06T11:51:08.419Z,995.42
2022-11-06T11:52:08.426Z,995.41
2022-11-06T11:53:10.568Z,995.38
2022-11-06T11:54:09.396Z,995.35
2022-11-06T11:55:08.392Z,995.36
2022-11-06T11:56:08.386Z,995.28
2022-11-06T11:57:09.376Z,995.23
2022-11-06T11:58:08.401Z,995.23
2022-11-06T11:59:08.418Z,995.17
2022-11-06T12:00:08.349Z,995.19
2022-11-06T12:01:08.343Z,995.10
2022-11-06T12:02:08.554Z,995.13
2022-11-06T12:03:08.427Z,995.08
2022-11-06T12:04:08.318Z,995.05
2022-11-06T12:05:09.308Z,994.99
2022-11-06T12:06:08.319Z,994.96
2022-11-06T12:07:08.320Z,994.99
2022-11-06T12:08:08.286Z,994.98
2022-11-06T12:09:08.278Z,994.90
2022-11-06T12:10:08.265Z,994.86
2022-11-06T12:11:08.270Z,994.81
2022-11-06T12:12:08.290Z,994.78
2022-11-06T12:13:08.248Z,994.87
2022-11-06T12:14:08.241Z,994.87
2022-11-06T12:15:08.230Z,994.82
2022-11-06T12:16:08.225Z,994.86
2022-11-06T12:17:08.246Z,994.83
2022-11-06T12:18:08.209Z,994.76
2022-11-06T12:19:08.203Z,994.72
2022-11-06T12:20:08.189Z,994.70
2022-11-06T12:21:08.190Z,994.66